sensor_id;sensor_type;location;lat;lon;timestamp;P1;durP1;ratioP1;P2;durP2;ratioP2
9547;SDS011;4812;51.992;8.648;2022-07-22T00:00:34;37.43;;;25.60;;
9547;SDS011;4812;51.992;8.648;2022-07-22T00:03:03;34.67;;;23.00;;
9547;SDS011;4812;51.992;8.648;2022-07-22T00:05:30;36.83;;;23.73;;
9547;SDS011;4812;51.992;8.648;2022-07-22T00:07:58;33.00;;;22.80;;
9547;SDS011;4812;51.992;8.648;2022-07-22T00:10:26;38.10;;;23.90;;
9547;SDS011;4812;51.992;8.648;2022-07-22T00:12:53;32.13;;;22.60;;
9547;SDS011;4812;51.992;8.648;2022-07-22T00:15:21;29.27;;;22.97;;
9547;SDS011;4812;51.992;8.648;2022-07-22T00:17:49;29.40;;;22.13;;
9547;SDS011;4812;51.992;8.648;2022-07-22T00:20:18;24.13;;;20.43;;
9547;SDS011;4812;51.992;8.648;2022-07-22T00:22:46;25.37;;;22.03;;
9547;SDS011;4812;51.992;8.648;2022-07-22T00:25:13;26.70;;;20.60;;
9547;SDS011;4812;51.992;8.648;2022-07-22T00:27:41;24.90;;;21.37;;
9547;SDS011;4812;51.992;8.648;2022-07-22T00:30:09;24.70;;;21.27;;
9547;SDS011;4812;51.992;8.648;2022-07-22T00:32:37;25.60;;;21.27;;
9547;SDS011;4812;51.992;8.648;2022-07-22T00:35:06;24.63;;;21.77;;
9547;SDS011;4812;51.992;8.648;2022-07-22T00:37:35;22.10;;;19.80;;
9547;SDS011;4812;51.992;8.648;2022-07-22T00:40:03;23.33;;;20.00;;
9547;SDS011;4812;51.992;8.648;2022-07-22T00:42:32;21.87;;;19.57;;
9547;SDS011;4812;51.992;8.648;2022-07-22T00:45:01;19.60;;;17.53;;
9547;SDS011;4812;51.992;8.648;2022-07-22T00:47:33;17.97;;;16.30;;
9547;SDS011;4812;51.992;8.648;2022-07-22T00:50:01;16.47;;;14.07;;
9547;SDS011;4812;51.992;8.648;2022-07-22T00:52:29;16.10;;;14.40;;
9547;SDS011;4812;51.992;8.648;2022-07-22T00:54:59;15.57;;;13.73;;
9547;SDS011;4812;51.992;8.648;2022-07-22T00:57:27;14.17;;;12.77;;
9547;SDS011;4812;51.992;8.648;2022-07-22T00:59:55;16.00;;;12.63;;
9547;SDS011;4812;51.992;8.648;2022-07-22T01:02:23;14.43;;;13.00;;
9547;SDS011;4812;51.992;8.648;2022-07-22T01:04:51;13.53;;;12.10;;
9547;SDS011;4812;51.992;8.648;2022-07-22T01:07:19;13.97;;;12.33;;
9547;SDS011;4812;51.992;8.648;2022-07-22T01:09:46;13.23;;;11.93;;
9547;SDS011;4812;51.992;8.648;2022-07-22T01:12:15;13.83;;;11.53;;
9547;SDS011;4812;51.992;8.648;2022-07-22T01:14:43;14.20;;;11.50;;
9547;SDS011;4812;51.992;8.648;2022-07-22T01:17:10;13.57;;;11.80;;
9547;SDS011;4812;51.992;8.648;2022-07-22T01:19:38;13.60;;;12.10;;
9547;SDS011;4812;51.992;8.648;2022-07-22T01:22:07;11.33;;;10.23;;
9547;SDS011;4812;51.992;8.648;2022-07-22T01:24:35;14.60;;;11.23;;
9547;SDS011;4812;51.992;8.648;2022-07-22T01:27:03;13.33;;;11.63;;
9547;SDS011;4812;51.992;8.648;2022-07-22T01:29:31;12.30;;;10.93;;
9547;SDS011;4812;51.992;8.648;2022-07-22T01:31:59;13.33;;;11.80;;
9547;SDS011;4812;51.992;8.648;2022-07-22T01:34:27;13.23;;;11.20;;
9547;SDS011;4812;51.992;8.648;2022-07-22T01:36:55;13.87;;;11.50;;
9547;SDS011;4812;51.992;8.648;2022-07-22T01:39:24;13.57;;;11.00;;
9547;SDS011;4812;51.992;8.648;2022-07-22T01:41:52;14.73;;;11.60;;
9547;SDS011;4812;51.992;8.648;2022-07-22T01:44:19;12.77;;;11.53;;
9547;SDS011;4812;51.992;8.648;2022-07-22T01:46:47;12.57;;;11.27;;
9547;SDS011;4812;51.992;8.648;2022-07-22T01:49:16;12.07;;;11.07;;
9547;SDS011;4812;51.992;8.648;2022-07-22T01:51:44;13.30;;;11.90;;
9547;SDS011;4812;51.992;8.648;2022-07-22T01:54:12;13.23;;;11.93;;
9547;SDS011;4812;51.992;8.648;2022-07-22T01:56:41;12.37;;;11.37;;
9547;SDS011;4812;51.992;8.648;2022-07-22T01:59:09;13.67;;;11.93;;
9547;SDS011;4812;51.992;8.648;2022-07-22T02:01:37;13.37;;;12.17;;
9547;SDS011;4812;51.992;8.648;2022-07-22T02:04:04;13.50;;;11.93;;
9547;SDS011;4812;51.992;8.648;2022-07-22T02:06:32;11.83;;;10.73;;
9547;SDS011;4812;51.992;8.648;2022-07-22T02:08:59;11.67;;;10.67;;
9547;SDS011;4812;51.992;8.648;2022-07-22T02:11:33;14.13;;;12.67;;
9547;SDS011;4812;51.992;8.648;2022-07-22T02:14:02;10.57;;;9.57;;
9547;SDS011;4812;51.992;8.648;2022-07-22T02:16:30;11.47;;;10.33;;
9547;SDS011;4812;51.992;8.648;2022-07-22T02:18:57;11.13;;;9.77;;
9547;SDS011;4812;51.992;8.648;2022-07-22T02:21:26;10.60;;;9.77;;
9547;SDS011;4812;51.992;8.648;2022-07-22T02:23:57;11.07;;;9.97;;
9547;SDS011;4812;51.992;8.648;2022-07-22T02:26:25;10.60;;;9.60;;
9547;SDS011;4812;51.992;8.648;2022-07-22T02:28:53;10.53;;;9.43;;
9547;SDS011;4812;51.992;8.648;2022-07-22T02:31:23;9.97;;;8.90;;
9547;SDS011;4812;51.992;8.648;2022-07-22T02:33:51;10.50;;;9.17;;
9547;SDS011;4812;51.992;8.648;2022-07-22T02:36:21;9.50;;;8.70;;
9547;SDS011;4812;51.992;8.648;2022-07-22T02:38:49;9.80;;;8.03;;
9547;SDS011;4812;51.992;8.648;2022-07-22T02:41:16;9.40;;;8.60;;
9547;SDS011;4812;51.992;8.648;2022-07-22T02:43:50;10.80;;;8.47;;
9547;SDS011;4812;51.992;8.648;2022-07-22T02:46:20;9.47;;;8.57;;
9547;SDS011;4812;51.992;8.648;2022-07-22T02:48:50;10.30;;;9.17;;
9547;SDS011;4812;51.992;8.648;2022-07-22T02:51:20;10.17;;;8.97;;
9547;SDS011;4812;51.992;8.648;2022-07-22T02:53:47;10.30;;;9.30;;
9547;SDS011;4812;51.992;8.648;2022-07-22T02:56:15;11.07;;;9.97;;
9547;SDS011;4812;51.992;8.648;2022-07-22T02:58:43;9.93;;;9.03;;
9547;SDS011;4812;51.992;8.648;2022-07-22T03:01:13;11.40;;;9.50;;
9547;SDS011;4812;51.992;8.648;2022-07-22T03:03:49;17.40;;;9.97;;
9547;SDS011;4812;51.992;8.648;2022-07-22T03:06:19;10.50;;;9.07;;
9547;SDS011;4812;51.992;8.648;2022-07-22T03:08:58;11.50;;;8.97;;
9547;SDS011;4812;51.992;8.648;2022-07-22T03:11:27;10.17;;;9.03;;
9547;SDS011;4812;51.992;8.648;2022-07-22T03:13:55;9.00;;;8.30;;
9547;SDS011;4812;51.992;8.648;2022-07-22T03:16:23;9.80;;;8.90;;
9547;SDS011;4812;51.992;8.648;2022-07-22T03:18:52;9.53;;;8.63;;
9547;SDS011;4812;51.992;8.648;2022-07-22T03:21:20;11.53;;;9.00;;
9547;SDS011;4812;51.992;8.648;2022-07-22T03:23:50;9.57;;;8.77;;
9547;SDS011;4812;51.992;8.648;2022-07-22T03:26:20;11.33;;;9.83;;
9547;SDS011;4812;51.992;8.648;2022-07-22T03:28:47;10.83;;;9.70;;
9547;SDS011;4812;51.992;8.648;2022-07-22T03:31:15;11.17;;;9.80;;
9547;SDS011;4812;51.992;8.648;2022-07-22T03:33:43;11.17;;;10.10;;
9547;SDS011;4812;51.992;8.648;2022-07-22T03:36:12;12.43;;;10.30;;
9547;SDS011;4812;51.992;8.648;2022-07-22T03:38:41;11.13;;;10.13;;
9547;SDS011;4812;51.992;8.648;2022-07-22T03:41:09;10.47;;;9.40;;
9547;SDS011;4812;51.992;8.648;2022-07-22T03:43:36;11.70;;;9.30;;
9547;SDS011;4812;51.992;8.648;2022-07-22T03:46:04;12.23;;;11.03;;
9547;SDS011;4812;51.992;8.648;2022-07-22T03:48:32;10.67;;;9.67;;
9547;SDS011;4812;51.992;8.648;2022-07-22T03:50:59;10.23;;;9.27;;
9547;SDS011;4812;51.992;8.648;2022-07-22T03:53:28;10.53;;;9.40;;
9547;SDS011;4812;51.992;8.648;2022-07-22T03:55:56;10.07;;;9.30;;
9547;SDS011;4812;51.992;8.648;2022-07-22T03:58:23;11.60;;;9.57;;
9547;SDS011;4812;51.992;8.648;2022-07-22T04:00:52;9.90;;;9.30;;
9547;SDS011;4812;51.992;8.648;2022-07-22T04:03:20;10.80;;;10.00;;
9547;SDS011;4812;51.992;8.648;2022-07-22T04:06:04;11.30;;;10.20;;
9547;SDS011;4812;51.992;8.648;2022-07-22T04:08:57;10.77;;;10.00;;
9547;SDS011;4812;51.992;8.648;2022-07-22T04:11:26;11.03;;;10.03;;
9547;SDS011;4812;51.992;8.648;2022-07-22T04:13:54;11.20;;;10.30;;
9547;SDS011;4812;51.992;8.648;2022-07-22T04:16:22;11.63;;;10.73;;
9547;SDS011;4812;51.992;8.648;2022-07-22T04:18:57;11.70;;;10.60;;
9547;SDS011;4812;51.992;8.648;2022-07-22T04:21:52;11.50;;;10.60;;
9547;SDS011;4812;51.992;8.648;2022-07-22T04:24:23;11.20;;;10.40;;
9547;SDS011;4812;51.992;8.648;2022-07-22T04:26:52;11.33;;;10.63;;
9547;SDS011;4812;51.992;8.648;2022-07-22T04:29:21;11.13;;;10.43;;
9547;SDS011;4812;51.992;8.648;2022-07-22T04:31:49;12.47;;;11.47;;
9547;SDS011;4812;51.992;8.648;2022-07-22T04:34:18;11.50;;;10.73;;
9547;SDS011;4812;51.992;8.648;2022-07-22T04:36:47;12.13;;;11.33;;
9547;SDS011;4812;51.992;8.648;2022-07-22T04:39:16;12.30;;;11.37;;
9547;SDS011;4812;51.992;8.648;2022-07-22T04:41:51;12.27;;;11.47;;
9547;SDS011;4812;51.992;8.648;2022-07-22T04:44:19;12.83;;;11.73;;
9547;SDS011;4812;51.992;8.648;2022-07-22T04:46:47;12.30;;;11.47;;
9547;SDS011;4812;51.992;8.648;2022-07-22T04:49:15;12.00;;;11.20;;
9547;SDS011;4812;51.992;8.648;2022-07-22T04:51:43;12.60;;;11.60;;
9547;SDS011;4812;51.992;8.648;2022-07-22T04:54:16;13.10;;;12.00;;
9547;SDS011;4812;51.992;8.648;2022-07-22T04:56:47;13.63;;;12.53;;
9547;SDS011;4812;51.992;8.648;2022-07-22T04:59:17;12.97;;;11.97;;
9547;SDS011;4812;51.992;8.648;2022-07-22T05:01:44;13.20;;;12.20;;
9547;SDS011;4812;51.992;8.648;2022-07-22T05:04:12;14.70;;;12.57;;
9547;SDS011;4812;51.992;8.648;2022-07-22T05:06:43;13.97;;;12.73;;
9547;SDS011;4812;51.992;8.648;2022-07-22T05:09:10;13.40;;;12.40;;
9547;SDS011;4812;51.992;8.648;2022-07-22T05:11:38;13.73;;;12.60;;
9547;SDS011;4812;51.992;8.648;2022-07-22T05:14:06;13.80;;;12.63;;
9547;SDS011;4812;51.992;8.648;2022-07-22T05:16:36;14.27;;;12.93;;
9547;SDS011;4812;51.992;8.648;2022-07-22T05:19:05;14.70;;;13.40;;
9547;SDS011;4812;51.992;8.648;2022-07-22T05:21:32;13.67;;;12.67;;
9547;SDS011;4812;51.992;8.648;2022-07-22T05:24:01;13.80;;;12.83;;
9547;SDS011;4812;51.992;8.648;2022-07-22T05:26:30;14.83;;;13.43;;
9547;SDS011;4812;51.992;8.648;2022-07-22T05:28:59;14.30;;;13.20;;
9547;SDS011;4812;51.992;8.648;2022-07-22T05:31:28;14.17;;;13.17;;
9547;SDS011;4812;51.992;8.648;2022-07-22T05:33:57;14.10;;;13.10;;
9547;SDS011;4812;51.992;8.648;2022-07-22T05:36:28;14.50;;;13.50;;
9547;SDS011;4812;51.992;8.648;2022-07-22T05:38:56;15.33;;;14.07;;
9547;SDS011;4812;51.992;8.648;2022-07-22T05:41:25;15.40;;;14.20;;
9547;SDS011;4812;51.992;8.648;2022-07-22T05:43:53;16.50;;;15.00;;
9547;SDS011;4812;51.992;8.648;2022-07-22T05:46:21;15.23;;;14.10;;
9547;SDS011;4812;51.992;8.648;2022-07-22T05:48:48;14.60;;;13.50;;
9547;SDS011;4812;51.992;8.648;2022-07-22T05:51:18;15.37;;;14.03;;
9547;SDS011;4812;51.992;8.648;2022-07-22T05:53:46;14.93;;;13.80;;
9547;SDS011;4812;51.992;8.648;2022-07-22T05:56:15;15.17;;;13.97;;
9547;SDS011;4812;51.992;8.648;2022-07-22T05:58:42;15.83;;;14.63;;
9547;SDS011;4812;51.992;8.648;2022-07-22T06:01:11;15.67;;;14.27;;
9547;SDS011;4812;51.992;8.648;2022-07-22T06:03:40;15.70;;;14.43;;
9547;SDS011;4812;51.992;8.648;2022-07-22T06:06:09;16.33;;;15.17;;
9547;SDS011;4812;51.992;8.648;2022-07-22T06:08:38;16.57;;;15.00;;
9547;SDS011;4812;51.992;8.648;2022-07-22T06:11:09;16.00;;;14.80;;
9547;SDS011;4812;51.992;8.648;2022-07-22T06:13:37;16.30;;;15.00;;
9547;SDS011;4812;51.992;8.648;2022-07-22T06:16:06;16.77;;;15.27;;
9547;SDS011;4812;51.992;8.648;2022-07-22T06:18:37;17.17;;;15.67;;
9547;SDS011;4812;51.992;8.648;2022-07-22T06:21:04;15.93;;;14.70;;
9547;SDS011;4812;51.992;8.648;2022-07-22T06:23:34;15.63;;;14.43;;
9547;SDS011;4812;51.992;8.648;2022-07-22T06:26:03;16.23;;;14.70;;
9547;SDS011;4812;51.992;8.648;2022-07-22T06:28:33;16.73;;;15.50;;
9547;SDS011;4812;51.992;8.648;2022-07-22T06:31:01;16.17;;;14.67;;
9547;SDS011;4812;51.992;8.648;2022-07-22T06:33:29;16.73;;;15.43;;
9547;SDS011;4812;51.992;8.648;2022-07-22T06:35:59;16.50;;;15.17;;
9547;SDS011;4812;51.992;8.648;2022-07-22T06:38:28;16.20;;;14.87;;
9547;SDS011;4812;51.992;8.648;2022-07-22T06:41:42;16.73;;;15.40;;
9547;SDS011;4812;51.992;8.648;2022-07-22T06:44:39;16.30;;;15.13;;
9547;SDS011;4812;51.992;8.648;2022-07-22T06:47:17;16.50;;;15.00;;
9547;SDS011;4812;51.992;8.648;2022-07-22T06:49:45;16.73;;;15.07;;
9547;SDS011;4812;51.992;8.648;2022-07-22T06:52:12;16.53;;;15.27;;
9547;SDS011;4812;51.992;8.648;2022-07-22T06:54:40;17.60;;;16.00;;
9547;SDS011;4812;51.992;8.648;2022-07-22T06:57:14;17.33;;;15.83;;
9547;SDS011;4812;51.992;8.648;2022-07-22T06:59:42;17.53;;;16.10;;
9547;SDS011;4812;51.992;8.648;2022-07-22T07:02:10;17.60;;;16.07;;
9547;SDS011;4812;51.992;8.648;2022-07-22T07:04:38;17.87;;;16.23;;
9547;SDS011;4812;51.992;8.648;2022-07-22T07:07:06;17.97;;;16.50;;
9547;SDS011;4812;51.992;8.648;2022-07-22T07:09:56;18.20;;;16.40;;
9547;SDS011;4812;51.992;8.648;2022-07-22T07:12:36;17.87;;;16.47;;
9547;SDS011;4812;51.992;8.648;2022-07-22T07:15:06;18.33;;;16.90;;
9547;SDS011;4812;51.992;8.648;2022-07-22T07:17:55;19.50;;;17.70;;
9547;SDS011;4812;51.992;8.648;2022-07-22T07:20:24;18.80;;;17.37;;
9547;SDS011;4812;51.992;8.648;2022-07-22T07:22:52;18.63;;;17.20;;
9547;SDS011;4812;51.992;8.648;2022-07-22T07:25:22;18.53;;;16.93;;
9547;SDS011;4812;51.992;8.648;2022-07-22T07:27:54;18.90;;;17.30;;
9547;SDS011;4812;51.992;8.648;2022-07-22T07:30:42;18.07;;;16.70;;
9547;SDS011;4812;51.992;8.648;2022-07-22T07:33:10;17.57;;;16.23;;
9547;SDS011;4812;51.992;8.648;2022-07-22T07:35:38;18.40;;;16.70;;
9547;SDS011;4812;51.992;8.648;2022-07-22T07:38:06;18.60;;;17.20;;
9547;SDS011;4812;51.992;8.648;2022-07-22T07:40:37;19.63;;;18.00;;
9547;SDS011;4812;51.992;8.648;2022-07-22T07:43:06;19.50;;;17.67;;
9547;SDS011;4812;51.992;8.648;2022-07-22T07:45:34;17.97;;;16.57;;
9547;SDS011;4812;51.992;8.648;2022-07-22T07:48:03;17.40;;;16.10;;
9547;SDS011;4812;51.992;8.648;2022-07-22T07:50:31;16.63;;;15.37;;
9547;SDS011;4812;51.992;8.648;2022-07-22T07:52:59;16.57;;;15.30;;
9547;SDS011;4812;51.992;8.648;2022-07-22T07:55:27;17.60;;;16.20;;
9547;SDS011;4812;51.992;8.648;2022-07-22T07:57:56;19.80;;;18.00;;
9547;SDS011;4812;51.992;8.648;2022-07-22T08:00:26;18.87;;;17.17;;
9547;SDS011;4812;51.992;8.648;2022-07-22T08:02:55;19.53;;;17.60;;
9547;SDS011;4812;51.992;8.648;2022-07-22T08:05:25;18.87;;;17.00;;
9547;SDS011;4812;51.992;8.648;2022-07-22T08:07:55;18.80;;;17.10;;
9547;SDS011;4812;51.992;8.648;2022-07-22T08:10:23;19.60;;;17.90;;
9547;SDS011;4812;51.992;8.648;2022-07-22T08:13:29;19.47;;;17.60;;
9547;SDS011;4812;51.992;8.648;2022-07-22T08:16:03;19.77;;;17.63;;
9547;SDS011;4812;51.992;8.648;2022-07-22T08:18:35;19.70;;;18.03;;
9547;SDS011;4812;51.992;8.648;2022-07-22T08:21:03;20.17;;;18.17;;
9547;SDS011;4812;51.992;8.648;2022-07-22T08:23:51;20.60;;;18.73;;
9547;SDS011;4812;51.992;8.648;2022-07-22T08:26:19;19.60;;;17.80;;
9547;SDS011;4812;51.992;8.648;2022-07-22T08:28:47;22.93;;;20.57;;
9547;SDS011;4812;51.992;8.648;2022-07-22T08:31:16;23.47;;;21.27;;
9547;SDS011;4812;51.992;8.648;2022-07-22T08:33:46;20.33;;;18.47;;
9547;SDS011;4812;51.992;8.648;2022-07-22T08:36:13;20.00;;;18.30;;
9547;SDS011;4812;51.992;8.648;2022-07-22T08:38:41;21.00;;;18.93;;
9547;SDS011;4812;51.992;8.648;2022-07-22T08:41:08;20.53;;;18.73;;
9547;SDS011;4812;51.992;8.648;2022-07-22T08:43:36;22.53;;;20.27;;
9547;SDS011;4812;51.992;8.648;2022-07-22T08:46:08;21.47;;;19.47;;
9547;SDS011;4812;51.992;8.648;2022-07-22T08:48:52;22.57;;;20.27;;
9547;SDS011;4812;51.992;8.648;2022-07-22T08:51:42;23.07;;;21.00;;
9547;SDS011;4812;51.992;8.648;2022-07-22T08:54:24;23.70;;;21.17;;
9547;SDS011;4812;51.992;8.648;2022-07-22T08:56:53;23.57;;;21.13;;
9547;SDS011;4812;51.992;8.648;2022-07-22T08:59:22;21.73;;;19.70;;
9547;SDS011;4812;51.992;8.648;2022-07-22T09:02:03;20.63;;;18.73;;
9547;SDS011;4812;51.992;8.648;2022-07-22T09:04:49;20.20;;;18.40;;
9547;SDS011;4812;51.992;8.648;2022-07-22T09:07:23;19.33;;;17.57;;
9547;SDS011;4812;51.992;8.648;2022-07-22T09:09:52;19.63;;;17.80;;
9547;SDS011;4812;51.992;8.648;2022-07-22T09:12:49;19.80;;;18.03;;
9547;SDS011;4812;51.992;8.648;2022-07-22T09:15:38;20.57;;;18.47;;
9547;SDS011;4812;51.992;8.648;2022-07-22T09:18:26;20.20;;;18.50;;
9547;SDS011;4812;51.992;8.648;2022-07-22T09:21:21;21.43;;;19.43;;
9547;SDS011;4812;51.992;8.648;2022-07-22T09:24:25;20.70;;;18.93;;
9547;SDS011;4812;51.992;8.648;2022-07-22T09:26:57;19.90;;;18.10;;
9547;SDS011;4812;51.992;8.648;2022-07-22T09:29:29;19.77;;;18.17;;
9547;SDS011;4812;51.992;8.648;2022-07-22T09:32:16;20.37;;;18.47;;
9547;SDS011;4812;51.992;8.648;2022-07-22T09:34:50;20.97;;;19.10;;
9547;SDS011;4812;51.992;8.648;2022-07-22T09:37:34;22.10;;;19.93;;
9547;SDS011;4812;51.992;8.648;2022-07-22T09:40:11;21.20;;;19.40;;
9547;SDS011;4812;51.992;8.648;2022-07-22T09:42:44;21.40;;;19.40;;
9547;SDS011;4812;51.992;8.648;2022-07-22T09:45:14;22.83;;;20.60;;
9547;SDS011;4812;51.992;8.648;2022-07-22T09:47:45;22.03;;;20.00;;
9547;SDS011;4812;51.992;8.648;2022-07-22T09:50:44;21.70;;;19.80;;
9547;SDS011;4812;51.992;8.648;2022-07-22T09:53:22;21.73;;;19.63;;
9547;SDS011;4812;51.992;8.648;2022-07-22T09:55:58;21.90;;;19.70;;
9547;SDS011;4812;51.992;8.648;2022-07-22T09:58:27;22.33;;;20.03;;
9547;SDS011;4812;51.992;8.648;2022-07-22T10:00:59;21.23;;;19.23;;
9547;SDS011;4812;51.992;8.648;2022-07-22T10:03:32;22.00;;;19.80;;
9547;SDS011;4812;51.992;8.648;2022-07-22T10:06:04;21.80;;;19.53;;
9547;SDS011;4812;51.992;8.648;2022-07-22T10:08:36;21.57;;;19.70;;
9547;SDS011;4812;51.992;8.648;2022-07-22T10:11:05;21.87;;;19.63;;
9547;SDS011;4812;51.992;8.648;2022-07-22T10:13:37;20.83;;;19.07;;
9547;SDS011;4812;51.992;8.648;2022-07-22T10:16:09;21.30;;;19.37;;
9547;SDS011;4812;51.992;8.648;2022-07-22T10:18:37;20.80;;;19.07;;
9547;SDS011;4812;51.992;8.648;2022-07-22T10:21:06;21.37;;;19.47;;
9547;SDS011;4812;51.992;8.648;2022-07-22T10:23:36;21.17;;;19.30;;
9547;SDS011;4812;51.992;8.648;2022-07-22T10:26:45;20.80;;;19.13;;
9547;SDS011;4812;51.992;8.648;2022-07-22T10:29:23;22.00;;;20.00;;
9547;SDS011;4812;51.992;8.648;2022-07-22T10:37:54;22.70;;;20.60;;
9547;SDS011;4812;51.992;8.648;2022-07-22T10:40:25;22.30;;;20.07;;
9547;SDS011;4812;51.992;8.648;2022-07-22T10:43:04;22.33;;;20.50;;
9547;SDS011;4812;51.992;8.648;2022-07-22T10:45:33;22.60;;;20.40;;
9547;SDS011;4812;51.992;8.648;2022-07-22T10:48:02;22.03;;;20.13;;
9547;SDS011;4812;51.992;8.648;2022-07-22T10:50:40;20.80;;;18.93;;
9547;SDS011;4812;51.992;8.648;2022-07-22T10:53:10;19.33;;;17.80;;
9547;SDS011;4812;51.992;8.648;2022-07-22T10:55:56;19.03;;;17.60;;
9547;SDS011;4812;51.992;8.648;2022-07-22T10:58:45;19.53;;;17.87;;
9547;SDS011;4812;51.992;8.648;2022-07-22T11:01:20;18.80;;;17.30;;
9547;SDS011;4812;51.992;8.648;2022-07-22T11:03:49;20.07;;;18.23;;
9547;SDS011;4812;51.992;8.648;2022-07-22T11:06:19;19.67;;;17.80;;
9547;SDS011;4812;51.992;8.648;2022-07-22T11:08:55;19.80;;;18.10;;
9547;SDS011;4812;51.992;8.648;2022-07-22T11:14:19;20.53;;;18.57;;
9547;SDS011;4812;51.992;8.648;2022-07-22T11:16:54;20.60;;;18.93;;
9547;SDS011;4812;51.992;8.648;2022-07-22T11:19:23;20.07;;;18.50;;
9547;SDS011;4812;51.992;8.648;2022-07-22T11:21:52;20.50;;;18.67;;
9547;SDS011;4812;51.992;8.648;2022-07-22T11:24:21;20.60;;;18.90;;
9547;SDS011;4812;51.992;8.648;2022-07-22T11:26:50;20.47;;;18.77;;
9547;SDS011;4812;51.992;8.648;2022-07-22T11:29:23;19.80;;;18.20;;
9547;SDS011;4812;51.992;8.648;2022-07-22T11:31:52;20.60;;;18.87;;
9547;SDS011;4812;51.992;8.648;2022-07-22T11:34:21;20.23;;;18.60;;
9547;SDS011;4812;51.992;8.648;2022-07-22T11:36:49;20.20;;;18.60;;
9547;SDS011;4812;51.992;8.648;2022-07-22T11:39:18;19.83;;;18.33;;
9547;SDS011;4812;51.992;8.648;2022-07-22T11:41:47;20.37;;;18.67;;
9547;SDS011;4812;51.992;8.648;2022-07-22T11:44:18;20.33;;;18.53;;
9547;SDS011;4812;51.992;8.648;2022-07-22T11:46:47;20.53;;;18.83;;
9547;SDS011;4812;51.992;8.648;2022-07-22T11:49:16;19.67;;;18.17;;
9547;SDS011;4812;51.992;8.648;2022-07-22T11:51:44;20.63;;;18.93;;
9547;SDS011;4812;51.992;8.648;2022-07-22T11:54:12;20.57;;;18.87;;
9547;SDS011;4812;51.992;8.648;2022-07-22T11:56:40;20.77;;;18.90;;
9547;SDS011;4812;51.992;8.648;2022-07-22T11:59:13;21.33;;;19.60;;
9547;SDS011;4812;51.992;8.648;2022-07-22T12:01:43;21.03;;;19.10;;
9547;SDS011;4812;51.992;8.648;2022-07-22T12:04:12;20.13;;;18.40;;
9547;SDS011;4812;51.992;8.648;2022-07-22T12:06:42;20.33;;;18.43;;
9547;SDS011;4812;51.992;8.648;2022-07-22T12:09:11;20.87;;;19.27;;
9547;SDS011;4812;51.992;8.648;2022-07-22T12:11:42;20.77;;;18.87;;
9547;SDS011;4812;51.992;8.648;2022-07-22T12:14:12;19.67;;;18.17;;
9547;SDS011;4812;51.992;8.648;2022-07-22T12:16:43;20.80;;;19.10;;
9547;SDS011;4812;51.992;8.648;2022-07-22T12:19:13;20.37;;;18.73;;
9547;SDS011;4812;51.992;8.648;2022-07-22T12:21:54;20.83;;;19.10;;
9547;SDS011;4812;51.992;8.648;2022-07-22T12:24:26;20.23;;;18.63;;
9547;SDS011;4812;51.992;8.648;2022-07-22T12:26:54;20.30;;;18.67;;
9547;SDS011;4812;51.992;8.648;2022-07-22T12:29:23;20.00;;;18.50;;
9547;SDS011;4812;51.992;8.648;2022-07-22T12:31:55;20.20;;;18.70;;
9547;SDS011;4812;51.992;8.648;2022-07-22T12:34:33;21.07;;;18.93;;
9547;SDS011;4812;51.992;8.648;2022-07-22T12:37:13;19.93;;;18.43;;
9547;SDS011;4812;51.992;8.648;2022-07-22T12:39:52;20.20;;;18.70;;
9547;SDS011;4812;51.992;8.648;2022-07-22T12:42:21;20.30;;;18.70;;
9547;SDS011;4812;51.992;8.648;2022-07-22T12:44:53;20.10;;;18.40;;
9547;SDS011;4812;51.992;8.648;2022-07-22T12:47:45;20.93;;;19.23;;
9547;SDS011;4812;51.992;8.648;2022-07-22T12:50:18;20.53;;;18.67;;
9547;SDS011;4812;51.992;8.648;2022-07-22T12:52:47;19.90;;;18.37;;
9547;SDS011;4812;51.992;8.648;2022-07-22T12:55:35;21.87;;;20.07;;
9547;SDS011;4812;51.992;8.648;2022-07-22T12:58:04;22.30;;;20.40;;
9547;SDS011;4812;51.992;8.648;2022-07-22T13:00:34;22.13;;;19.93;;
9547;SDS011;4812;51.992;8.648;2022-07-22T13:03:04;21.60;;;19.50;;
9547;SDS011;4812;51.992;8.648;2022-07-22T13:05:32;21.80;;;19.90;;
9547;SDS011;4812;51.992;8.648;2022-07-22T13:08:01;21.70;;;19.90;;
9547;SDS011;4812;51.992;8.648;2022-07-22T13:10:34;21.20;;;19.53;;
9547;SDS011;4812;51.992;8.648;2022-07-22T13:13:04;21.67;;;19.77;;
9547;SDS011;4812;51.992;8.648;2022-07-22T13:15:32;21.03;;;19.33;;
9547;SDS011;4812;51.992;8.648;2022-07-22T13:18:00;21.90;;;20.10;;
9547;SDS011;4812;51.992;8.648;2022-07-22T13:20:29;22.20;;;20.23;;
9547;SDS011;4812;51.992;8.648;2022-07-22T13:22:57;22.77;;;20.73;;
9547;SDS011;4812;51.992;8.648;2022-07-22T13:25:24;23.20;;;21.40;;
9547;SDS011;4812;51.992;8.648;2022-07-22T13:27:53;23.60;;;21.60;;
9547;SDS011;4812;51.992;8.648;2022-07-22T13:30:20;23.07;;;20.83;;
9547;SDS011;4812;51.992;8.648;2022-07-22T13:32:48;23.13;;;20.93;;
9547;SDS011;4812;51.992;8.648;2022-07-22T13:35:16;22.20;;;20.10;;
9547;SDS011;4812;51.992;8.648;2022-07-22T13:37:45;23.13;;;21.03;;
9547;SDS011;4812;51.992;8.648;2022-07-22T13:40:13;22.53;;;20.63;;
9547;SDS011;4812;51.992;8.648;2022-07-22T13:42:41;22.63;;;20.63;;
9547;SDS011;4812;51.992;8.648;2022-07-22T13:45:09;22.53;;;20.63;;
9547;SDS011;4812;51.992;8.648;2022-07-22T13:47:39;22.43;;;20.53;;
9547;SDS011;4812;51.992;8.648;2022-07-22T13:50:09;23.20;;;21.17;;
9547;SDS011;4812;51.992;8.648;2022-07-22T13:52:36;21.73;;;19.93;;
9547;SDS011;4812;51.992;8.648;2022-07-22T13:55:06;22.70;;;20.70;;
9547;SDS011;4812;51.992;8.648;2022-07-22T13:57:34;22.87;;;21.00;;
9547;SDS011;4812;51.992;8.648;2022-07-22T14:00:02;23.60;;;21.33;;
9547;SDS011;4812;51.992;8.648;2022-07-22T14:02:37;23.07;;;21.17;;
9547;SDS011;4812;51.992;8.648;2022-07-22T14:05:06;22.90;;;20.90;;
9547;SDS011;4812;51.992;8.648;2022-07-22T14:07:34;23.20;;;21.03;;
9547;SDS011;4812;51.992;8.648;2022-07-22T14:10:01;22.17;;;20.27;;
9547;SDS011;4812;51.992;8.648;2022-07-22T14:12:30;22.17;;;20.27;;
9547;SDS011;4812;51.992;8.648;2022-07-22T14:14:58;21.80;;;20.00;;
9547;SDS011;4812;51.992;8.648;2022-07-22T14:17:29;22.27;;;20.30;;
9547;SDS011;4812;51.992;8.648;2022-07-22T14:19:57;22.70;;;20.80;;
9547;SDS011;4812;51.992;8.648;2022-07-22T14:22:27;21.50;;;19.60;;
9547;SDS011;4812;51.992;8.648;2022-07-22T14:24:55;21.70;;;19.97;;
9547;SDS011;4812;51.992;8.648;2022-07-22T14:27:22;20.60;;;18.97;;
9547;SDS011;4812;51.992;8.648;2022-07-22T14:29:51;22.53;;;20.63;;
9547;SDS011;4812;51.992;8.648;2022-07-22T14:32:19;22.33;;;20.53;;
9547;SDS011;4812;51.992;8.648;2022-07-22T14:34:46;22.20;;;20.13;;
9547;SDS011;4812;51.992;8.648;2022-07-22T14:37:15;22.00;;;20.13;;
9547;SDS011;4812;51.992;8.648;2022-07-22T14:39:42;21.40;;;19.70;;
9547;SDS011;4812;51.992;8.648;2022-07-22T14:42:10;22.30;;;20.27;;
9547;SDS011;4812;51.992;8.648;2022-07-22T14:44:38;22.03;;;20.00;;
9547;SDS011;4812;51.992;8.648;2022-07-22T14:47:07;22.47;;;20.47;;
9547;SDS011;4812;51.992;8.648;2022-07-22T14:49:35;22.60;;;20.60;;
9547;SDS011;4812;51.992;8.648;2022-07-22T14:52:02;22.30;;;20.37;;
9547;SDS011;4812;51.992;8.648;2022-07-22T14:54:30;22.00;;;20.20;;
9547;SDS011;4812;51.992;8.648;2022-07-22T14:56:57;21.43;;;19.73;;
9547;SDS011;4812;51.992;8.648;2022-07-22T14:59:25;21.43;;;19.73;;
9547;SDS011;4812;51.992;8.648;2022-07-22T15:01:52;22.27;;;20.10;;
9547;SDS011;4812;51.992;8.648;2022-07-22T15:04:21;21.70;;;19.73;;
9547;SDS011;4812;51.992;8.648;2022-07-22T15:06:49;21.53;;;19.60;;
9547;SDS011;4812;51.992;8.648;2022-07-22T15:09:16;22.30;;;20.40;;
9547;SDS011;4812;51.992;8.648;2022-07-22T15:11:44;22.23;;;20.43;;
9547;SDS011;4812;51.992;8.648;2022-07-22T15:14:12;23.50;;;21.30;;
9547;SDS011;4812;51.992;8.648;2022-07-22T15:16:39;21.57;;;19.70;;
9547;SDS011;4812;51.992;8.648;2022-07-22T15:19:07;21.70;;;19.87;;
9547;SDS011;4812;51.992;8.648;2022-07-22T15:21:37;21.60;;;19.70;;